Mussala Top/Sommet, Bulgaria
Current Conditions -  °F | °C
As of 12:30 PM on Thursday 23 Oct 2014 (Local Time) from LBSF Reporting Station
Light Rain Light Rain  
Wind Chill: 34°   Ceiling: 6000
Heat Index: 41°   Visibility: 6mi
Dew Point: 39°   Wind: 13mph
Humidity: 93%   Direction: 270°W
Pressure: 29.59"   Gusts: NA
Location:  42.18°N, 23.58°E
Report Text: LBSF 230930Z 27006MPS 9999 -RA SCT023 OVC060 05/04 Q1002 NOSIG
Loading
Personal Weather Stations






























Interactive Weather Map
Tropical Storm Tracking
New forecast layout! Learn more

10-Day Weather Forecast

Advertisements
Track Severe Weather on mobile